Time;durP1;ratioP1;P1;durP2;ratioP2;P2;SDS_P1;SDS_P2;PMS_P1;PMS_P2;Temp;Humidity;BMP_temperature;BMP_pressure;BME280_temperature;BME280_humidity;BME280_pressure;Samples;Min_cycle;Max_cycle;Signal;HPM_P1;HPM_P2
2021/12/21 00:00:21;;;;;;;11.87;11.23;;;;;;;-0.62;62.26;92841.34;5119350;27;20228;-77
2021/12/21 00:02:50;;;;;;;12.13;11.47;;;;;;;-0.77;62.57;92820.34;5085151;28;20217;-77
2021/12/21 00:05:20;;;;;;;12.20;11.50;;;;;;;-0.58;62.49;92839.19;5084274;28;20243;-76
2021/12/21 00:07:52;;;;;;;12.17;11.50;;;;;;;-0.83;63.08;92822.94;5085879;28;20215;-76
2021/12/21 00:10:19;;;;;;;13.23;12.43;;;;;;;-0.88;63.74;92804.81;5084430;28;20236;-76
2021/12/21 00:13:06;;;;;;;11.30;10.67;;;;;;;-0.69;63.59;92821.88;5087816;28;20271;-76
2021/12/21 00:16:30;;;;;;;12.30;11.60;;;;;;;-0.51;62.99;92837.34;5085762;28;20232;-76
2021/12/21 00:21:36;;;;;;;13.00;12.20;;;;;;;-0.62;63.27;92835.44;5094190;28;20235;-76
2021/12/21 00:24:11;;;;;;;13.57;12.77;;;;;;;-0.69;62.55;92832.94;5085124;28;20199;-76
2021/12/21 00:26:37;;;;;;;11.60;11.00;;;;;;;-0.74;63.05;92824.28;5085338;28;20283;-76
2021/12/21 00:29:03;;;;;;;13.63;12.80;;;;;;;-0.56;64.08;92860.28;5085444;28;20192;-75
2021/12/21 00:31:32;;;;;;;12.73;11.90;;;;;;;-0.53;64.96;92860.63;5084805;28;20221;-75
2021/12/21 00:33:58;;;;;;;13.63;12.73;;;;;;;-0.67;65.25;92869.38;5084393;28;20193;-76
2021/12/21 00:36:26;;;;;;;11.93;11.20;;;;;;;-0.74;66.26;92866.06;5085849;28;20228;-75
2021/12/21 00:38:55;;;;;;;11.77;11.17;;;;;;;-0.87;67.08;92853.31;5086656;28;20246;-76
2021/12/21 00:41:21;;;;;;;11.57;11.00;;;;;;;-0.82;65.71;92855.25;5085426;28;20227;-76
2021/12/21 00:43:48;;;;;;;11.30;10.60;;;;;;;-0.78;65.44;92864.13;5084959;28;20203;-76
2021/12/21 00:46:14;;;;;;;13.70;13.00;;;;;;;-0.70;64.99;92862.09;5085468;28;20221;-76
2021/12/21 00:48:48;;;;;;;12.20;11.60;;;;;;;-0.92;65.39;92830.06;5086537;28;20223;-74
2021/12/21 00:51:15;;;;;;;13.67;12.77;;;;;;;-0.57;66.16;92861.25;5086033;28;20216;-75
2021/12/21 00:53:41;;;;;;;11.57;10.67;;;;;;;-0.84;64.91;92844.44;5085981;28;20208;-77
2021/12/21 00:56:07;;;;;;;13.63;12.53;;;;;;;-0.54;64.92;92869.31;5084914;28;20252;-76
2021/12/21 00:58:33;;;;;;;12.03;11.43;;;;;;;-0.69;65.03;92850.06;5086015;28;20188;-76
2021/12/21 01:01:03;;;;;;;12.27;11.43;;;;;;;-0.60;64.50;92869.34;5084740;28;20240;-73
2021/12/21 01:03:29;;;;;;;13.53;12.40;;;;;;;-0.62;64.23;92861.88;5085622;28;20213;-76
2021/12/21 01:06:03;;;;;;;13.00;12.20;;;;;;;-0.73;64.50;92848.94;5085034;28;20240;-76
2021/12/21 01:08:41;;;;;;;11.97;11.17;;;;;;;-0.74;64.54;92858.38;5076372;28;20327;-76
2021/12/21 01:11:22;;;;;;;14.43;13.17;;;;;;;-0.65;65.01;92871.72;5072641;28;20310;-77
2021/12/21 01:16:23;;;;;;;13.83;12.97;;;;;;;-0.91;67.04;92856.47;5072361;28;20545;-76
2021/12/21 01:19:01;;;;;;;13.77;12.70;;;;;;;-0.86;68.62;92879.72;5072960;28;20185;-76
2021/12/21 01:21:31;;;;;;;12.57;11.73;;;;;;;-0.81;70.66;92869.66;5073478;28;20224;-76
2021/12/21 01:32:19;;;;;;;12.93;12.23;;;;;;;-1.06;68.63;92861.84;5071303;28;20225;-76
2021/12/21 01:35:34;;;;;;;12.67;11.97;;;;;;;-1.16;65.38;92853.03;5071818;28;20223;-77
2021/12/21 01:50:32;;;;;;;12.60;11.83;;;;;;;-1.23;62.31;92872.75;5056043;28;20246;-76
2021/12/21 01:52:57;;;;;;;11.67;11.10;;;;;;;-1.02;62.14;92900.66;5071223;28;20189;-76
2021/12/21 01:55:23;;;;;;;12.97;12.37;;;;;;;-0.98;62.48;92907.72;5069827;28;20975;-76
2021/12/21 01:57:48;;;;;;;12.57;11.87;;;;;;;-1.21;63.28;92866.44;5071676;28;20897;-76
2021/12/21 02:00:15;;;;;;;13.17;12.30;;;;;;;-1.13;63.33;92896.94;5070143;28;20185;-77
2021/12/21 02:02:40;;;;;;;12.33;11.53;;;;;;;-1.09;62.32;92892.22;5070797;28;20251;-76
2021/12/21 02:05:07;;;;;;;13.50;12.83;;;;;;;-1.29;63.06;92878.69;5070870;28;20197;-75
2021/12/21 02:07:33;;;;;;;12.33;11.77;;;;;;;-1.11;62.44;92899.31;5070823;28;20216;-76
2021/12/21 02:09:59;;;;;;;11.97;11.27;;;;;;;-1.38;61.67;92849.13;5070453;28;20200;-76
2021/12/21 02:12:24;;;;;;;12.17;11.47;;;;;;;-1.11;64.20;92887.31;5069096;28;20210;-76
2021/12/21 02:14:57;;;;;;;11.83;11.37;;;;;;;-1.11;62.00;92900.09;5071179;28;20221;-77
2021/12/21 02:18:13;;;;;;;11.03;10.47;;;;;;;-1.27;60.40;92867.25;5069888;28;20229;-76
2021/12/21 02:20:41;;;;;;;11.23;10.77;;;;;;;-1.08;60.06;92892.03;5069619;28;20204;-76
2021/12/21 02:23:22;;;;;;;10.90;10.40;;;;;;;-1.02;59.85;92905.78;5070727;28;20306;-76
2021/12/21 02:30:55;;;;;;;10.23;9.73;;;;;;;-1.10;59.81;92888.06;5070266;28;20225;-78
2021/12/21 02:33:22;;;;;;;12.77;12.00;;;;;;;-1.31;59.39;92845.59;5070966;28;20181;-78
2021/12/21 02:35:48;;;;;;;9.80;9.40;;;;;;;-1.10;59.95;92865.81;5071755;28;20240;-78
2021/12/21 02:38:13;;;;;;;11.97;11.47;;;;;;;-1.17;59.85;92866.81;5070971;28;20219;-78
2021/12/21 02:40:39;;;;;;;11.73;11.23;;;;;;;-1.01;62.24;92889.44;5070998;28;20229;-78
2021/12/21 02:43:05;;;;;;;11.77;11.30;;;;;;;-1.07;58.52;92887.66;5070577;28;20193;-77
2021/12/21 02:45:32;;;;;;;11.90;11.30;;;;;;;-0.99;58.10;92897.69;5070534;28;20232;-78
2021/12/21 02:47:58;;;;;;;11.77;11.27;;;;;;;-1.02;55.52;92880.97;5070726;28;20193;-77
2021/12/21 02:50:23;;;;;;;10.20;9.80;;;;;;;-0.91;53.75;92882.09;5069820;28;20236;-78
2021/12/21 02:52:50;;;;;;;10.80;10.40;;;;;;;-1.15;54.33;92855.38;5069923;28;20193;-79
2021/12/21 02:55:16;;;;;;;10.67;10.23;;;;;;;-0.89;53.29;92882.69;5070558;28;20224;-77
2021/12/21 02:57:41;;;;;;;10.50;10.10;;;;;;;-0.90;52.67;92894.72;5069247;28;20228;-76
2021/12/21 03:00:09;;;;;;;10.47;9.87;;;;;;;-1.00;51.74;92879.00;5070024;28;20249;-76
2021/12/21 03:02:35;;;;;;;10.23;9.73;;;;;;;-0.92;52.41;92889.00;5070546;28;20197;-78
2021/12/21 03:05:01;;;;;;;10.10;9.70;;;;;;;-0.97;53.14;92882.91;5070049;28;20193;-77
2021/12/21 03:10:10;;;;;;;10.87;10.37;;;;;;;-0.97;53.83;92893.97;5070225;28;20200;-77
2021/12/21 03:15:22;;;;;;;11.47;10.87;;;;;;;-1.23;55.45;92870.19;5069668;28;20251;-77
2021/12/21 03:17:48;;;;;;;11.90;11.20;;;;;;;-1.29;57.02;92856.41;5069742;28;20205;-77
2021/12/21 03:20:14;;;;;;;10.97;10.37;;;;;;;-1.22;57.11;92864.06;5069738;28;20201;-76
2021/12/21 03:22:40;;;;;;;11.50;11.00;;;;;;;-1.08;57.25;92907.38;5070520;28;20193;-77
2021/12/21 03:25:06;;;;;;;10.73;10.33;;;;;;;-1.11;56.39;92896.75;5069338;28;20185;-77
2021/12/21 03:27:31;;;;;;;11.07;10.67;;;;;;;-1.20;55.94;92883.38;5070072;28;20207;-77
2021/12/21 03:29:57;;;;;;;11.23;10.73;;;;;;;-1.16;55.64;92892.22;5070186;28;20244;-74
2021/12/21 03:32:22;;;;;;;10.87;10.37;;;;;;;-1.05;55.71;92904.41;5069955;28;20231;-77
2021/12/21 03:34:48;;;;;;;10.20;9.70;;;;;;;-1.00;58.71;92898.69;5069834;28;20193;-78
2021/12/21 03:37:14;;;;;;;10.97;10.57;;;;;;;-1.15;55.36;92911.72;5068814;28;20221;-77
2021/12/21 03:39:45;;;;;;;10.90;10.50;;;;;;;-1.10;55.70;92908.56;5068830;28;20189;-77
2021/12/21 03:42:13;;;;;;;9.83;9.43;;;;;;;-1.10;55.17;92893.19;5051361;28;20233;-77
2021/12/21 03:44:39;;;;;;;11.57;11.07;;;;;;;-1.10;55.45;92923.94;5048441;28;20194;-77
2021/12/21 03:47:05;;;;;;;10.40;10.00;;;;;;;-1.29;54.99;92878.69;5066787;28;20238;-77
2021/12/21 03:52:18;;;;;;;10.67;10.07;;;;;;;-1.16;53.89;92901.69;5068273;28;20221;-78
2021/12/21 03:54:50;;;;;;;9.63;9.10;;;;;;;-1.02;53.22;92918.59;5068938;28;20189;-77
2021/12/21 03:57:16;;;;;;;10.13;9.73;;;;;;;-0.89;52.60;92916.00;5069817;28;20247;-77
2021/12/21 03:59:43;;;;;;;9.90;9.50;;;;;;;-1.14;50.64;92892.03;5067817;28;20213;-77
2021/12/21 04:02:12;;;;;;;11.00;10.50;;;;;;;-0.87;51.10;92929.41;5069418;28;20237;-77
2021/12/21 04:04:39;;;;;;;9.93;9.53;;;;;;;-0.84;51.44;92934.91;5069936;28;20199;-77
2021/12/21 04:07:05;;;;;;;10.03;9.63;;;;;;;-0.93;52.18;92933.53;5069084;28;20255;-78
2021/12/21 04:09:31;;;;;;;10.63;10.23;;;;;;;-0.99;52.04;92936.91;5069194;28;20193;-77
2021/12/21 04:11:56;;;;;;;10.13;9.73;;;;;;;-0.99;52.91;92936.13;5067769;28;20225;-78
2021/12/21 04:14:22;;;;;;;9.30;8.93;;;;;;;-0.91;52.74;92934.13;5070254;28;20200;-78
2021/12/21 04:16:48;;;;;;;10.27;9.87;;;;;;;-1.11;54.01;92917.25;5067951;28;20232;-78
2021/12/21 04:19:14;;;;;;;11.07;10.53;;;;;;;-0.86;52.35;92936.09;5068867;28;20182;-78
2021/12/21 04:21:41;;;;;;;9.30;8.90;;;;;;;-0.89;52.66;92939.06;5070342;28;20213;-77
2021/12/21 04:24:06;;;;;;;10.73;10.33;;;;;;;-0.83;52.18;92946.75;5069268;28;20193;-78
2021/12/21 04:26:32;;;;;;;10.37;9.97;;;;;;;-0.89;52.59;92941.63;5063317;28;20233;-78
2021/12/21 04:28:57;;;;;;;10.33;9.83;;;;;;;-0.63;53.98;92941.53;5067617;28;20260;-78
2021/12/21 04:31:23;;;;;;;10.23;9.77;;;;;;;-0.72;55.21;92928.16;5067696;28;20296;-76
2021/12/21 04:33:49;;;;;;;9.30;8.90;;;;;;;-0.68;52.56;92946.47;5068240;28;20208;-76
2021/12/21 04:36:14;;;;;;;9.83;9.43;;;;;;;-0.80;52.14;92945.53;5068125;28;20230;-77
2021/12/21 04:38:44;;;;;;;9.27;8.77;;;;;;;-1.03;51.01;92899.09;5066811;28;20268;-78
2021/12/21 04:43:37;;;;;;;9.87;9.47;;;;;;;-0.90;50.60;92948.50;5069827;28;20193;-78
2021/12/21 04:46:05;;;;;;;9.73;9.30;;;;;;;-1.07;49.92;92931.22;5072139;28;20232;-80
2021/12/21 04:48:30;;;;;;;10.37;9.87;;;;;;;-1.07;49.41;92936.34;5070543;28;20189;-77
2021/12/21 04:50:56;;;;;;;9.07;8.77;;;;;;;-1.08;48.78;92950.94;5069891;28;20225;-78
2021/12/21 04:53:22;;;;;;;9.30;8.90;;;;;;;-0.97;49.17;92957.22;5072241;28;20737;-77
2021/12/21 04:55:47;;;;;;;10.43;9.93;;;;;;;-1.01;49.33;92954.25;5070862;28;20232;-78
2021/12/21 04:58:13;;;;;;;9.97;9.67;;;;;;;-1.00;50.79;92960.19;5072097;28;20189;-78
2021/12/21 05:00:40;;;;;;;9.57;9.27;;;;;;;-1.14;50.62;92958.63;5070442;28;20225;-78
2021/12/21 05:03:05;;;;;;;10.07;9.70;;;;;;;-1.15;50.86;92973.19;5071037;28;20213;-78
2021/12/21 05:05:31;;;;;;;9.17;8.87;;;;;;;-1.19;51.56;92961.78;5071462;28;21201;-76
2021/12/21 05:08:11;;;;;;;10.97;10.27;;;;;;;-1.45;52.14;92945.66;5069029;28;20285;-77
2021/12/21 05:10:55;;;;;;;10.13;9.73;;;;;;;-1.49;53.01;92932.47;5072143;28;20233;-77
2021/12/21 05:13:29;;;;;;;10.63;10.23;;;;;;;-1.50;53.31;92938.56;5069938;28;20997;-76
2021/12/21 05:15:55;;;;;;;10.00;9.60;;;;;;;-1.34;54.90;92950.19;5070244;28;20225;-76
2021/12/21 05:18:21;;;;;;;11.90;11.30;;;;;;;-1.36;54.34;92960.63;5070965;28;20197;-78
2021/12/21 05:20:47;;;;;;;10.33;9.93;;;;;;;-1.46;55.22;92969.69;5066779;28;20304;-76
2021/12/21 05:23:12;;;;;;;9.77;9.37;;;;;;;-1.51;54.96;92937.00;5050910;28;20204;-74
2021/12/21 05:25:39;;;;;;;11.30;10.83;;;;;;;-1.47;54.73;92962.97;5050719;28;20272;-78
2021/12/21 05:28:06;;;;;;;11.47;11.03;;;;;;;-1.40;54.69;92958.66;5050056;28;20671;-79
2021/12/21 05:30:34;;;;;;;11.20;10.80;;;;;;;-1.43;57.46;92941.91;5051043;28;20230;-78
2021/12/21 05:33:00;;;;;;;11.40;10.90;;;;;;;-1.22;56.01;92963.94;5050514;28;20249;-74
2021/12/21 05:35:26;;;;;;;12.27;11.77;;;;;;;-1.38;55.02;92946.44;5048710;28;20244;-76
2021/12/21 05:37:56;;;;;;;11.43;10.97;;;;;;;-1.33;56.99;92979.91;5048946;28;20271;-79
2021/12/21 05:40:29;;;;;;;10.00;9.50;;;;;;;-1.50;54.84;92953.13;5050507;28;20218;-74
2021/12/21 05:42:55;;;;;;;10.37;9.97;;;;;;;-1.34;54.97;92979.16;5048844;28;20209;-75
2021/12/21 05:45:20;;;;;;;10.70;10.17;;;;;;;-1.44;56.14;92970.25;5049173;28;20229;-76
2021/12/21 05:47:46;;;;;;;10.70;10.30;;;;;;;-1.23;55.61;92982.88;5051835;28;20205;-76
2021/12/21 05:50:16;;;;;;;10.20;9.80;;;;;;;-1.25;55.71;92990.75;5052764;28;20186;-76
2021/12/21 05:52:42;;;;;;;12.57;12.07;;;;;;;-1.27;56.00;92979.13;5069023;28;20205;-76
2021/12/21 05:55:08;;;;;;;10.73;10.33;;;;;;;-1.23;54.97;93026.41;5069598;28;20186;-76
2021/12/21 05:57:34;;;;;;;10.27;9.77;;;;;;;-1.37;56.17;93014.59;5070240;28;20255;-76
2021/12/21 06:00:00;;;;;;;10.77;10.37;;;;;;;-1.51;58.80;92992.53;5070266;28;20201;-76
2021/12/21 06:02:25;;;;;;;9.57;9.17;;;;;;;-1.69;56.55;92981.09;5070070;28;20196;-77
2021/12/21 06:04:51;;;;;;;10.83;10.33;;;;;;;-1.83;56.52;92964.16;5071763;28;20180;-76
2021/12/21 06:07:16;;;;;;;10.87;10.17;;;;;;;-1.58;56.55;92996.84;5053114;28;20225;-76
2021/12/21 06:09:45;;;;;;;9.73;9.23;;;;;;;-1.53;56.58;93007.28;5070103;28;20265;-76
2021/12/21 06:14:56;;;;;;;10.27;9.77;;;;;;;-1.42;57.00;93022.84;5071464;28;20730;-75
2021/12/21 06:25:41;;;;;;;11.30;10.80;;;;;;;-1.39;54.52;93047.28;5069186;28;20296;-76
2021/12/21 06:28:11;;;;;;;11.60;11.20;;;;;;;-1.46;54.74;93036.25;5069928;28;20197;-77
2021/12/21 06:30:39;;;;;;;11.07;10.57;;;;;;;-1.60;54.81;93001.38;5070320;28;20249;-76
2021/12/21 06:33:07;;;;;;;10.67;10.17;;;;;;;-1.12;57.12;93048.88;5070287;28;20208;-76
2021/12/21 06:35:34;;;;;;;10.30;9.80;;;;;;;-0.96;56.10;93049.25;5070848;28;20270;-76
2021/12/21 06:38:00;;;;;;;10.00;9.50;;;;;;;-1.10;55.56;93047.66;5070380;28;20221;-76
2021/12/21 06:40:26;;;;;;;10.03;9.53;;;;;;;-1.31;55.44;93044.53;5071049;28;20225;-76
2021/12/21 06:42:53;;;;;;;11.03;10.63;;;;;;;-1.27;57.33;93045.69;5070714;28;20208;-76
2021/12/21 06:45:42;;;;;;;11.10;10.53;;;;;;;-1.25;55.56;93049.66;5069893;28;20237;-75
2021/12/21 06:53:32;;;;;;;9.77;9.17;;;;;;;-1.10;56.25;93072.50;5070488;28;20255;-76
2021/12/21 06:55:57;;;;;;;11.43;10.93;;;;;;;-1.19;56.07;93076.22;5069770;28;20233;-76
2021/12/21 06:58:23;;;;;;;9.50;9.20;;;;;;;-1.23;55.49;93052.00;5070732;28;20189;-76
2021/12/21 07:00:50;;;;;;;11.30;10.90;;;;;;;-1.02;56.10;93088.47;5070100;28;20229;-76
2021/12/21 07:03:15;;;;;;;11.50;10.90;;;;;;;-0.97;56.58;93088.66;5070068;28;20178;-76
2021/12/21 07:05:41;;;;;;;10.63;10.13;;;;;;;-1.12;57.16;93082.94;5069894;28;20259;-76
2021/12/21 07:08:11;;;;;;;12.03;11.23;;;;;;;-1.08;58.39;93075.66;5069032;28;20283;-76
2021/12/21 07:10:39;;;;;;;9.93;9.43;;;;;;;-1.14;56.32;93082.34;5070218;28;20235;-76
2021/12/21 07:18:33;;;;;;;10.57;10.00;;;;;;;-1.13;54.45;93065.19;5070957;28;20276;-78
2021/12/21 07:21:01;;;;;;;10.97;10.47;;;;;;;-0.99;55.77;93118.81;5069131;28;20228;-77
2021/12/21 07:23:28;;;;;;;10.00;9.57;;;;;;;-1.05;55.54;93122.16;5069891;28;20201;-79
2021/12/21 07:25:54;;;;;;;9.83;9.43;;;;;;;-0.85;55.45;93111.91;5065679;28;20231;-78
2021/12/21 07:28:20;;;;;;;10.03;9.60;;;;;;;-0.98;54.93;93111.94;5066299;28;20213;-80
2021/12/21 07:30:47;;;;;;;10.17;9.80;;;;;;;-1.38;57.26;93071.88;5065798;28;20292;-78
2021/12/21 07:33:14;;;;;;;10.80;10.30;;;;;;;-1.32;55.57;93089.03;5066164;28;20260;-79
2021/12/21 07:35:40;;;;;;;9.83;9.40;;;;;;;-1.21;54.36;93107.16;5068675;28;20266;-77
2021/12/21 07:38:05;;;;;;;11.07;10.67;;;;;;;-0.96;54.48;93122.75;5069634;28;20190;-78
2021/12/21 07:40:31;;;;;;;10.60;10.10;;;;;;;-0.95;54.49;93129.47;5068080;28;20220;-79
2021/12/21 07:42:57;;;;;;;10.00;9.70;;;;;;;-0.96;55.52;93127.88;5068540;28;20257;-76
2021/12/21 07:45:22;;;;;;;9.97;9.57;;;;;;;-0.94;55.43;93102.84;5067662;28;20232;-78
2021/12/21 07:47:48;;;;;;;13.07;12.53;;;;;;;-0.84;56.11;93134.00;5069686;28;20252;-78
2021/12/21 07:50:14;;;;;;;10.27;9.77;;;;;;;-0.83;55.26;93125.31;5067462;28;20186;-80
2021/12/21 07:52:39;;;;;;;11.67;11.07;;;;;;;-0.86;55.91;93138.53;5067878;28;20262;-81
2021/12/21 07:55:05;;;;;;;9.67;9.23;;;;;;;-0.94;56.94;93133.59;5069097;28;20204;-79
2021/12/21 07:57:31;;;;;;;12.33;11.63;;;;;;;-1.04;55.70;93110.16;5068665;28;20229;-79
2021/12/21 07:59:57;;;;;;;11.40;10.87;;;;;;;-0.75;55.59;93143.06;5069169;28;20220;-76
2021/12/21 08:02:25;;;;;;;10.80;10.20;;;;;;;-0.81;55.90;93143.84;5067217;28;20211;-76
2021/12/21 08:04:52;;;;;;;11.70;11.20;;;;;;;-1.01;55.41;93107.97;5068342;28;20186;-80
2021/12/21 08:07:22;;;;;;;10.77;10.27;;;;;;;-0.87;55.35;93126.72;5067137;28;20285;-80
2021/12/21 08:09:52;;;;;;;10.63;10.20;;;;;;;-0.88;55.95;93127.69;5068105;28;20248;-81
2021/12/21 08:12:18;;;;;;;11.47;10.87;;;;;;;-1.06;54.00;93079.56;5069733;28;20224;-79
2021/12/21 08:14:45;;;;;;;11.27;10.67;;;;;;;-0.80;54.62;93122.34;5067990;28;20228;-80
2021/12/21 08:17:10;;;;;;;11.60;11.00;;;;;;;-0.63;55.49;93146.59;5068365;28;20233;-80
2021/12/21 08:19:36;;;;;;;11.00;10.43;;;;;;;-0.55;56.06;93160.03;5072975;28;20190;-81
2021/12/21 08:22:03;;;;;;;12.33;11.67;;;;;;;-0.56;56.45;93161.00;5072379;28;20236;-81
2021/12/21 08:24:29;;;;;;;11.03;10.47;;;;;;;-0.46;55.36;93163.97;5072456;28;20194;-79
2021/12/21 08:26:58;;;;;;;9.90;9.50;;;;;;;-0.36;54.03;93174.59;5053857;28;20236;-79
2021/12/21 08:29:24;;;;;;;11.67;11.17;;;;;;;-0.26;52.89;93164.72;5051284;28;20182;-80
2021/12/21 08:31:50;;;;;;;10.30;9.90;;;;;;;-0.40;52.57;93139.28;5065576;28;20227;-78
2021/12/21 08:34:15;;;;;;;10.43;9.97;;;;;;;-0.51;52.41;93155.28;5071545;28;20253;-77
2021/12/21 08:36:41;;;;;;;12.90;10.87;;;;;;;-0.73;52.13;93141.09;5070324;28;20287;-77
2021/12/21 08:39:07;;;;;;;10.43;9.93;;;;;;;-0.51;53.04;93170.66;5071272;28;20193;-78
2021/12/21 08:41:39;;;;;;;9.87;9.47;;;;;;;-0.63;54.85;93141.47;5070493;28;20217;-76
2021/12/21 08:44:04;;;;;;;10.37;9.97;;;;;;;-0.49;52.11;93148.19;5071613;28;20249;-80
2021/12/21 08:46:30;;;;;;;11.50;11.00;;;;;;;-0.43;51.61;93171.25;5071492;28;20232;-79
2021/12/21 08:48:55;;;;;;;10.67;10.27;;;;;;;-0.72;52.33;93137.53;5072561;28;20185;-81
2021/12/21 08:51:21;;;;;;;10.37;9.87;;;;;;;-0.28;52.66;93176.19;5071498;28;20243;-80
2021/12/21 08:53:46;;;;;;;10.33;9.93;;;;;;;-0.30;51.65;93171.25;5070743;28;20204;-78
2021/12/21 08:56:12;;;;;;;10.83;10.33;;;;;;;-0.33;53.52;93175.97;5071719;28;20259;-84
2021/12/21 08:58:37;;;;;;;10.77;10.27;;;;;;;-0.08;51.08;93157.19;5071349;28;20189;-81
2021/12/21 09:01:04;;;;;;;10.77;10.27;;;;;;;0.10;50.24;93169.38;5070077;28;20221;-78
2021/12/21 09:03:30;;;;;;;11.27;10.73;;;;;;;0.02;50.04;93115.69;5070568;28;20181;-80
2021/12/21 09:05:56;;;;;;;10.50;10.07;;;;;;;0.56;50.66;93177.69;5070925;28;20248;-82
2021/12/21 09:08:22;;;;;;;10.70;10.00;;;;;;;0.21;51.15;93168.75;5070655;28;20192;-80
2021/12/21 09:10:47;;;;;;;10.83;10.30;;;;;;;0.02;53.74;93115.69;5070921;28;20225;-80
2021/12/21 09:13:13;;;;;;;12.23;11.60;;;;;;;0.60;50.49;93175.53;5072603;28;20198;-80
2021/12/21 09:15:38;;;;;;;11.70;11.20;;;;;;;0.00;50.61;93143.38;5070459;28;20233;-84
2021/12/21 09:18:06;;;;;;;11.17;10.67;;;;;;;0.63;50.71;93181.03;5071643;28;20236;-79
2021/12/21 09:20:32;;;;;;;11.57;10.97;;;;;;;0.68;50.77;93160.69;5067414;28;20225;-79
2021/12/21 09:22:58;;;;;;;11.00;10.50;;;;;;;0.57;50.35;93171.59;5071547;28;20194;-81
2021/12/21 09:25:25;;;;;;;11.23;10.73;;;;;;;0.28;53.21;93190.06;5069573;28;20225;-75
2021/12/21 09:27:51;;;;;;;10.30;9.80;;;;;;;0.42;51.22;93190.81;5071052;28;20216;-76
2021/12/21 09:30:19;;;;;;;10.83;10.33;;;;;;;0.44;51.64;93187.03;5064095;28;20230;-77
2021/12/21 09:32:45;;;;;;;11.23;10.73;;;;;;;0.28;50.97;93173.88;5049005;28;20653;-76
2021/12/21 09:35:10;;;;;;;11.67;10.93;;;;;;;0.21;52.79;93145.66;5049593;28;20375;-76
2021/12/21 09:37:38;;;;;;;10.87;10.20;;;;;;;0.72;50.71;93189.28;5069816;28;20216;-76
2021/12/21 09:40:09;;;;;;;9.57;9.03;;;;;;;0.96;50.81;93191.97;5070056;28;20197;-77
2021/12/21 09:42:35;;;;;;;11.43;10.63;;;;;;;1.13;50.27;93187.09;5069075;28;20189;-78
2021/12/21 09:45:00;;;;;;;10.37;9.87;;;;;;;0.96;52.86;93186.81;5069892;28;20197;-77
2021/12/21 09:47:28;;;;;;;11.50;10.73;;;;;;;1.17;50.74;93194.19;5069228;28;20196;-75
2021/12/21 09:49:54;;;;;;;10.43;9.80;;;;;;;0.95;48.78;93171.59;5068882;28;20189;-75
2021/12/21 09:52:23;;;;;;;12.93;12.27;;;;;;;0.87;49.71;93185.47;5069039;28;20221;-75
2021/12/21 09:54:50;;;;;;;11.33;9.83;;;;;;;0.89;49.52;93170.63;5067408;28;20204;-76
2021/12/21 09:57:17;;;;;;;10.00;9.60;;;;;;;0.56;49.07;93193.13;5068947;28;20790;-77
2021/12/21 09:59:44;;;;;;;12.57;12.00;;;;;;;0.05;51.98;93199.22;5068286;28;20240;-77
2021/12/21 10:02:10;;;;;;;9.77;9.37;;;;;;;-0.05;51.56;93166.28;5067914;28;20225;-77
2021/12/21 10:04:50;;;;;;;10.60;10.20;;;;;;;-0.02;51.61;93196.66;5067522;28;20204;-77
2021/12/21 10:07:16;;;;;;;10.17;9.70;;;;;;;-0.05;49.97;93190.13;5069440;28;20211;-75
2021/12/21 10:09:47;;;;;;;11.53;11.03;;;;;;;0.22;50.53;93190.88;5057397;28;20236;-77
2021/12/21 10:12:34;;;;;;;10.90;10.43;;;;;;;0.07;49.46;93185.19;5068962;28;20199;-80
2021/12/21 10:15:08;;;;;;;10.87;10.43;;;;;;;0.22;50.20;93178.03;5068687;28;20231;-78
2021/12/21 10:17:35;;;;;;;11.23;10.53;;;;;;;0.25;50.45;93176.84;5065905;28;20213;-81
2021/12/21 10:20:04;;;;;;;11.87;11.17;;;;;;;0.09;48.02;93154.97;5068449;28;20332;-75
2021/12/21 10:22:30;;;;;;;11.50;10.43;;;;;;;0.16;47.38;93178.06;5067067;28;20598;-73
2021/12/21 10:24:55;;;;;;;11.67;11.07;;;;;;;0.12;48.11;93180.25;5068584;28;20252;-74
2021/12/21 10:27:24;;;;;;;10.93;10.40;;;;;;;0.29;48.01;93171.09;5067562;28;20193;-74
2021/12/21 10:29:53;;;;;;;11.77;11.07;;;;;;;0.53;47.38;93170.41;5067002;28;20233;-75
2021/12/21 10:32:25;;;;;;;10.33;9.73;;;;;;;0.53;47.62;93157.56;5064427;28;20248;-76
2021/12/21 10:34:55;;;;;;;11.17;10.60;;;;;;;0.67;50.21;93177.06;5068036;28;20208;-74
2021/12/21 10:37:25;;;;;;;11.00;10.40;;;;;;;0.41;49.00;93187.44;5066090;28;20221;-75
2021/12/21 10:40:02;;;;;;;12.20;11.60;;;;;;;0.25;49.46;93182.75;5068173;28;20206;-70
2021/12/21 10:42:28;;;;;;;11.83;11.03;;;;;;;0.08;50.44;93161.09;5068710;28;20240;-74
2021/12/21 10:45:03;;;;;;;13.50;12.33;;;;;;;-0.12;49.99;93166.28;5068253;28;20202;-73
2021/12/21 10:47:29;;;;;;;11.80;11.10;;;;;;;0.13;49.70;93152.78;5066931;28;20217;-72
2021/12/21 10:49:54;;;;;;;12.47;11.50;;;;;;;0.24;49.15;93150.38;5069164;28;20181;-73
2021/12/21 10:52:20;;;;;;;12.10;11.40;;;;;;;0.22;49.64;93161.84;5069027;28;20228;-73
2021/12/21 10:54:47;;;;;;;10.17;9.60;;;;;;;0.20;48.97;93177.47;5069491;28;20193;-73
2021/12/21 10:57:16;;;;;;;11.60;11.00;;;;;;;0.45;49.63;93177.56;5068977;28;20255;-73
2021/12/21 10:59:45;;;;;;;12.00;11.30;;;;;;;0.40;49.90;93170.47;5067663;28;20195;-80
2021/12/21 11:02:14;;;;;;;12.13;11.43;;;;;;;0.69;49.19;93174.28;5068123;28;20229;-74
2021/12/21 11:04:54;;;;;;;11.17;10.57;;;;;;;0.37;47.98;93176.03;5067991;28;20243;-74
2021/12/21 11:10:30;;;;;;;11.17;10.47;;;;;;;0.45;47.51;93132.13;5068136;28;20203;-74
2021/12/21 11:13:00;;;;;;;10.77;10.27;;;;;;;0.84;47.18;93177.41;5045889;28;20217;-74
2021/12/21 11:15:29;;;;;;;10.37;9.93;;;;;;;0.41;47.99;93176.38;5067863;28;20240;-72
2021/12/21 11:18:18;;;;;;;11.80;11.20;;;;;;;0.20;48.80;93177.47;5066309;28;20213;-73
2021/12/21 11:20:48;;;;;;;10.87;10.33;;;;;;;-0.37;49.93;93136.31;5068209;28;20241;-74
2021/12/21 11:23:15;;;;;;;13.37;12.53;;;;;;;0.04;49.64;93177.88;5069051;28;20182;-73
2021/12/21 11:25:42;;;;;;;13.47;12.50;;;;;;;-0.12;51.38;93165.47;5066739;28;20225;-75
2021/12/21 11:28:15;;;;;;;12.37;11.63;;;;;;;-0.29;51.49;93179.72;5067922;28;20193;-80
2021/12/21 11:30:40;;;;;;;12.73;11.80;;;;;;;-0.01;52.68;93162.31;5066217;28;20229;-76
2021/12/21 11:33:07;;;;;;;12.63;11.73;;;;;;;0.03;51.14;93170.41;5068542;28;20181;-78
2021/12/21 11:38:10;;;;;;;13.77;12.97;;;;;;;-0.05;52.42;93184.22;5067869;28;20225;-77
2021/12/21 11:40:42;;;;;;;12.93;12.13;;;;;;;-0.53;53.10;93195.72;5066946;28;20256;-77
2021/12/21 11:43:08;;;;;;;11.57;10.90;;;;;;;-0.62;53.83;93189.19;5067488;28;20209;-77
2021/12/21 11:45:50;;;;;;;12.83;12.03;;;;;;;-0.85;53.61;93147.78;5066521;28;20229;-77
2021/12/21 11:48:25;;;;;;;11.83;11.10;;;;;;;-0.74;54.14;93176.19;5066606;28;20274;-77
2021/12/21 11:50:50;;;;;;;12.60;11.43;;;;;;;-0.68;55.06;93175.41;5066690;28;20220;-77
2021/12/21 11:53:18;;;;;;;11.30;10.50;;;;;;;-0.72;52.04;93193.94;5067800;28;20201;-76
2021/12/21 11:55:47;;;;;;;11.63;10.73;;;;;;;-0.60;52.57;93182.91;5067484;28;20236;-77
2021/12/21 11:58:18;;;;;;;12.53;11.73;;;;;;;-0.41;53.20;93165.94;5067434;28;20201;-77
2021/12/21 12:00:53;;;;;;;12.20;11.30;;;;;;;-0.24;52.22;93169.66;5066411;28;20243;-78
2021/12/21 12:03:23;;;;;;;13.07;12.10;;;;;;;-0.42;49.41;93184.88;5066912;28;20242;-79
2021/12/21 12:06:00;;;;;;;12.23;11.23;;;;;;;-0.25;48.82;93181.69;5066156;28;20218;-78
2021/12/21 12:08:42;;;;;;;14.03;12.93;;;;;;;-0.30;49.16;93148.16;5067768;28;20209;-78
2021/12/21 12:11:19;;;;;;;12.30;11.40;;;;;;;-0.48;48.57;93145.41;5065979;28;20240;-78
2021/12/21 12:13:45;;;;;;;16.20;11.63;;;;;;;-0.49;48.03;93164.34;5066820;28;20189;-78
2021/12/21 12:16:13;;;;;;;11.57;11.07;;;;;;;-0.26;48.06;93171.63;5066419;28;20229;-78
2021/12/21 12:18:41;;;;;;;12.80;11.87;;;;;;;-0.15;50.10;93183.84;5066616;28;20192;-78
2021/12/21 12:21:25;;;;;;;13.57;12.67;;;;;;;-0.35;48.12;93152.31;5067777;28;20297;-77
2021/12/21 12:23:52;;;;;;;12.90;11.90;;;;;;;-0.50;47.55;93138.91;5065831;28;20201;-79
2021/12/21 12:26:25;;;;;;;12.23;11.40;;;;;;;-0.48;47.36;93195.91;5067578;28;20228;-78
2021/12/21 12:28:51;;;;;;;10.17;9.50;;;;;;;-0.78;46.68;93181.91;5066861;28;20247;-80
2021/12/21 12:31:27;;;;;;;11.23;10.63;;;;;;;-0.53;47.80;93199.06;5067993;28;20229;-81
2021/12/21 12:33:52;;;;;;;10.90;10.37;;;;;;;-0.68;46.91;93197.66;5068302;28;20204;-78
2021/12/21 12:36:18;;;;;;;11.73;11.03;;;;;;;-0.58;48.01;93200.66;5066968;28;20226;-84